Ashley, Michigan
Current Conditions -  °F | °C
As of 5:51 AM on Monday 20 Oct 2014 (Local Time) from KAMN Reporting Station
Scattered Clouds Scattered Clouds  
Wind Chill: 45°   Ceiling: Unl
Heat Index: 47°   Visibility: 10mi
Dew Point: 44°   Wind: 6mph
Humidity: 87%   Direction: 200°SSW
Pressure: 29.81"   Gusts: NA
Location:  43.19°N, 84.47°W
Report Text: KAMN 200951Z AUTO 20005KT 10SM SCT070 09/07 A2981 RMK AO2 T00860065
Loading
Personal Weather Stations






























Interactive Weather Map New forecast layout! Learn more

10-Day Weather Forecast

Advertisements
Track Severe Weather on mobile